Time;durP1;ratioP1;P1;durP2;ratioP2;P2;SDS_P1;SDS_P2;PMS_P1;PMS_P2;Temp;Humidity;BMP_temperature;BMP_pressure;BME280_temperature;BME280_humidity;BME280_pressure;Samples;Min_cycle;Max_cycle;Signal;HPM_P1;HPM_P2
2022/08/09 00:00:29;;;;;;;3.75;2.60;;;19.60;56.10;;;;;;5033004;28;20033;-75
2022/08/09 00:02:55;;;;;;;2.33;2.10;;;19.50;56.20;;;;;;5032935;28;20068;-72
2022/08/09 00:05:21;;;;;;;4.15;2.20;;;19.50;56.10;;;;;;5032662;28;20022;-79
2022/08/09 00:07:47;;;;;;;3.35;2.38;;;19.50;56.30;;;;;;5030798;28;20379;-71
2022/08/09 00:10:13;;;;;;;3.47;2.38;;;19.50;56.30;;;;;;5052806;28;20032;-75
2022/08/09 00:12:39;;;;;;;3.05;2.40;;;19.40;56.50;;;;;;5052806;28;20028;-75
2022/08/09 00:15:05;;;;;;;4.32;2.55;;;19.40;56.70;;;;;;5052723;28;20025;-74
2022/08/09 00:17:31;;;;;;;3.47;1.98;;;19.40;56.80;;;;;;5036380;28;20104;-78
2022/08/09 00:19:57;;;;;;;6.10;3.08;;;19.30;56.70;;;;;;5052094;28;20601;-75
2022/08/09 00:22:22;;;;;;;2.53;2.08;;;19.30;56.80;;;;;;5046498;28;20029;-75
2022/08/09 00:24:48;;;;;;;7.13;2.22;;;19.30;56.70;;;;;;5052625;28;20021;-73
2022/08/09 00:27:14;;;;;;;3.22;2.60;;;19.20;56.80;;;;;;5052639;28;20478;-71
2022/08/09 00:29:39;;;;;;;4.28;2.50;;;19.20;56.90;;;;;;5052472;28;20017;-73
2022/08/09 00:32:06;;;;;;;6.50;2.33;;;19.20;56.80;;;;;;5052557;28;20433;-70
2022/08/09 00:34:31;;;;;;;3.30;2.42;;;19.20;56.80;;;;;;5050755;28;20060;-75
2022/08/09 00:36:57;;;;;;;2.90;2.47;;;19.10;56.60;;;;;;5034543;28;20076;-78
2022/08/09 00:39:23;;;;;;;4.40;2.80;;;19.10;56.90;;;;;;5046552;28;20029;-75
2022/08/09 00:41:49;;;;;;;3.15;2.05;;;19.10;57.00;;;;;;5052044;28;20029;-73
2022/08/09 00:44:15;;;;;;;2.40;1.98;;;19.10;56.90;;;;;;5052171;28;20031;-75
2022/08/09 00:46:42;;;;;;;2.47;1.90;;;19.10;57.20;;;;;;5042529;28;20026;-73
2022/08/09 00:49:09;;;;;;;5.55;2.13;;;19.10;57.70;;;;;;5032090;28;20014;-79
2022/08/09 00:51:35;;;;;;;2.30;1.90;;;19.00;57.10;;;;;;5032098;28;20032;-70
2022/08/09 00:54:01;;;;;;;3.53;2.28;;;19.00;57.10;;;;;;5016653;28;20044;-77
2022/08/09 00:56:29;;;;;;;5.30;2.30;;;19.00;57.10;;;;;;5052023;28;20052;-71
2022/08/09 00:58:55;;;;;;;3.88;2.33;;;19.00;57.30;;;;;;5050603;28;20028;-71
2022/08/09 01:01:28;;;;;;;5.95;2.95;;;19.00;57.30;;;;;;5051797;28;20025;-71
2022/08/09 01:04:06;;;;;;;4.82;2.40;;;19.00;57.30;;;;;;5051687;28;20075;-73
2022/08/09 01:06:56;;;;;;;3.58;2.35;;;19.00;57.50;;;;;;5051682;28;20032;-73
2022/08/09 01:09:36;;;;;;;3.58;2.28;;;18.90;57.60;;;;;;5045425;28;20031;-75
2022/08/09 01:12:16;;;;;;;5.30;2.55;;;18.90;57.60;;;;;;5051597;28;20033;-74
2022/08/09 01:15:13;;;;;;;4.57;2.05;;;18.90;57.40;;;;;;5051628;28;20029;-74
2022/08/09 01:17:49;;;;;;;3.38;2.40;;;18.90;57.10;;;;;;5033865;28;20450;-72
2022/08/09 01:20:33;;;;;;;2.45;1.75;;;18.90;57.00;;;;;;5031332;28;20037;-75
2022/08/09 01:23:36;;;;;;;2.30;2.00;;;18.80;57.00;;;;;;5031676;28;20101;-78
2022/08/09 01:26:40;;;;;;;3.03;2.15;;;18.80;56.90;;;;;;5029386;28;20069;-77
2022/08/09 01:29:11;;;;;;;3.43;2.10;;;18.80;57.00;;;;;;5027752;28;20037;-74
2022/08/09 01:31:39;;;;;;;3.10;2.15;;;18.80;57.00;;;;;;5049462;28;20036;-74
2022/08/09 01:34:06;;;;;;;4.65;2.22;;;18.80;57.10;;;;;;5051353;28;20361;-75
2022/08/09 01:36:33;;;;;;;3.03;2.25;;;18.80;57.00;;;;;;5051372;28;20449;-72
2022/08/09 01:39:00;;;;;;;2.47;2.20;;;18.70;57.20;;;;;;5051090;28;20096;-73
2022/08/09 01:41:31;;;;;;;2.80;2.10;;;18.70;57.20;;;;;;5044024;28;20503;-73
2022/08/09 01:44:00;;;;;;;3.85;1.70;;;18.70;57.40;;;;;;5031464;28;20026;-73
2022/08/09 01:46:33;;;;;;;3.58;2.10;;;18.70;57.60;;;;;;5031432;28;20092;-78
2022/08/09 01:49:10;;;;;;;2.58;2.17;;;18.70;57.60;;;;;;5031583;28;20380;-73
2022/08/09 01:51:38;;;;;;;4.53;2.33;;;18.70;57.70;;;;;;5031369;28;20022;-72
2022/08/09 01:54:05;;;;;;;3.88;2.10;;;18.70;57.70;;;;;;5031416;28;20029;-78
2022/08/09 01:56:37;;;;;;;3.70;2.42;;;18.60;57.40;;;;;;5033923;28;20321;-74
2022/08/09 01:59:08;;;;;;;4.65;1.90;;;18.60;57.50;;;;;;5054970;28;20096;-77
2022/08/09 02:01:35;;;;;;;4.00;2.05;;;18.60;57.30;;;;;;5055199;28;20389;-76
2022/08/09 02:04:03;;;;;;;3.65;1.80;;;18.60;57.30;;;;;;5055051;28;20025;-70
2022/08/09 02:09:17;;;;;;;6.88;2.00;;;18.50;57.10;;;;;;5055146;28;20092;-74
2022/08/09 02:11:43;;;;;;;3.75;2.00;;;18.50;56.90;;;;;;5048710;28;20080;-76
2022/08/09 02:14:14;;;;;;;2.90;2.13;;;18.50;56.60;;;;;;5055210;28;20029;-73
2022/08/09 02:16:41;;;;;;;4.20;2.05;;;18.50;56.60;;;;;;5048368;28;20013;-76
2022/08/09 02:19:07;;;;;;;3.53;1.95;;;18.40;56.40;;;;;;5034620;28;20497;-75
2022/08/09 02:21:38;;;;;;;6.25;1.98;;;18.40;56.40;;;;;;5034801;28;20038;-78
2022/08/09 02:24:09;;;;;;;2.60;2.03;;;18.40;56.50;;;;;;5034810;28;20021;-75
2022/08/09 02:26:36;;;;;;;2.10;1.70;;;18.40;56.50;;;;;;5034755;28;20462;-78
2022/08/09 02:29:34;;;;;;;6.05;2.00;;;18.40;56.40;;;;;;5034042;28;20083;-73
2022/08/09 02:32:02;;;;;;;5.15;2.00;;;18.40;56.40;;;;;;5035350;28;20064;-75
2022/08/09 02:34:32;;;;;;;3.10;1.90;;;18.40;56.60;;;;;;5034537;28;20021;-76
2022/08/09 02:37:00;;;;;;;2.92;2.05;;;18.40;56.70;;;;;;5034447;28;20055;-74
2022/08/09 02:39:35;;;;;;;3.97;2.08;;;18.40;56.60;;;;;;5034408;28;20470;-74
2022/08/09 02:42:06;;;;;;;5.70;1.98;;;18.30;56.80;;;;;;5044542;28;20040;-72
2022/08/09 02:44:39;;;;;;;2.30;2.00;;;18.40;57.00;;;;;;5046365;28;20036;-76
2022/08/09 02:47:08;;;;;;;2.70;2.40;;;18.30;57.10;;;;;;5043119;28;20390;-75
2022/08/09 02:49:40;;;;;;;12.02;2.50;;;18.40;57.60;;;;;;5034257;28;20021;-71
2022/08/09 02:52:10;;;;;;;3.47;2.13;;;18.30;57.30;;;;;;5034241;28;20025;-75
2022/08/09 02:54:38;;;;;;;3.30;1.90;;;18.40;57.10;;;;;;5034243;28;20029;-79
2022/08/09 02:57:05;;;;;;;4.18;1.90;;;18.40;57.20;;;;;;5034180;28;20435;-73
2022/08/09 02:59:34;;;;;;;5.13;1.90;;;18.40;57.20;;;;;;5033518;28;20105;-71
2022/08/09 03:02:02;;;;;;;2.63;2.03;;;18.30;57.20;;;;;;5015403;28;20130;-74
2022/08/09 03:04:30;;;;;;;7.43;2.45;;;18.30;57.20;;;;;;5033945;28;20040;-72
2022/08/09 03:07:01;;;;;;;2.63;2.13;;;18.30;57.50;;;;;;5034068;28;20017;-75
2022/08/09 03:09:27;;;;;;;3.88;2.20;;;18.30;57.60;;;;;;5033358;28;20021;-79
2022/08/09 03:11:55;;;;;;;3.35;2.05;;;18.30;57.70;;;;;;5033606;28;20033;-76
2022/08/09 03:14:21;;;;;;;4.38;2.00;;;18.30;57.80;;;;;;5033822;28;20025;-77
2022/08/09 03:16:52;;;;;;;4.75;1.92;;;18.20;57.70;;;;;;5035606;28;20113;-74
2022/08/09 03:19:19;;;;;;;3.10;2.13;;;18.20;57.80;;;;;;5053309;28;20049;-75
2022/08/09 03:21:49;;;;;;;3.22;2.38;;;18.20;58.10;;;;;;5053404;28;20036;-70
2022/08/09 03:24:16;;;;;;;4.85;2.33;;;18.20;58.20;;;;;;5053554;28;20021;-72
2022/08/09 03:26:44;;;;;;;6.88;2.90;;;18.20;58.30;;;;;;5053330;28;20049;-73
2022/08/09 03:29:12;;;;;;;7.93;2.95;;;18.20;58.60;;;;;;5053305;28;20025;-80
2022/08/09 03:31:39;;;;;;;3.53;2.38;;;18.10;58.70;;;;;;5047461;28;20055;-70
2022/08/09 03:34:06;;;;;;;4.13;2.53;;;18.10;58.80;;;;;;5053451;28;20021;-75
2022/08/09 03:36:32;;;;;;;10.52;2.83;;;18.10;58.80;;;;;;5035179;28;20052;-73
2022/08/09 03:38:58;;;;;;;3.92;2.53;;;18.10;58.90;;;;;;5053619;28;20053;-76
2022/08/09 03:41:24;;;;;;;3.83;2.60;;;18.10;58.90;;;;;;5045998;28;20479;-74
2022/08/09 03:43:50;;;;;;;4.60;2.72;;;18.10;58.90;;;;;;5033192;28;20021;-71
2022/08/09 03:46:15;;;;;;;3.33;2.70;;;18.10;59.00;;;;;;5038933;28;20025;-70
2022/08/09 03:48:43;;;;;;;3.08;2.20;;;18.10;59.30;;;;;;5052897;28;20049;-71
2022/08/09 03:51:11;;;;;;;3.70;2.58;;;18.00;59.20;;;;;;5042825;28;20025;-77
2022/08/09 03:53:39;;;;;;;6.50;2.95;;;18.00;59.10;;;;;;5032821;28;20518;-72
2022/08/09 03:56:05;;;;;;;4.57;2.80;;;18.00;59.20;;;;;;5032759;28;20021;-72
2022/08/09 03:58:31;;;;;;;3.83;2.90;;;18.00;59.40;;;;;;5032885;28;20411;-75
2022/08/09 04:00:57;;;;;;;3.75;2.25;;;18.00;59.40;;;;;;5031309;28;20068;-71
2022/08/09 04:03:24;;;;;;;7.68;2.45;;;18.00;59.20;;;;;;5024133;28;20037;-69
2022/08/09 04:05:50;;;;;;;3.42;2.28;;;18.00;59.20;;;;;;5016344;28;20079;-72
2022/08/09 04:08:16;;;;;;;4.38;2.30;;;18.10;59.30;;;;;;5033833;28;20041;-71
2022/08/09 04:10:42;;;;;;;3.85;2.15;;;18.00;59.20;;;;;;5031716;28;20021;-71
2022/08/09 04:13:11;;;;;;;2.65;2.15;;;18.00;59.80;;;;;;5033460;28;20088;-69
2022/08/09 04:15:37;;;;;;;3.50;2.30;;;18.00;59.00;;;;;;5033551;28;20036;-71
2022/08/09 04:18:05;;;;;;;2.30;2.10;;;18.00;59.10;;;;;;5013902;28;20089;-70
2022/08/09 04:20:31;;;;;;;5.00;2.53;;;18.00;59.10;;;;;;5033451;28;20048;-69
2022/08/09 04:22:57;;;;;;;5.22;2.28;;;18.00;59.00;;;;;;5031958;28;20026;-70
2022/08/09 04:25:23;;;;;;;4.43;2.72;;;18.00;59.20;;;;;;5017792;28;20398;-70
2022/08/09 04:27:49;;;;;;;8.10;2.50;;;18.10;59.50;;;;;;5033346;28;20026;-69
2022/08/09 04:30:18;;;;;;;6.35;2.72;;;18.10;59.70;;;;;;5033608;28;20412;-68
2022/08/09 04:32:44;;;;;;;4.95;2.40;;;18.10;59.90;;;;;;5032917;28;20467;-70
2022/08/09 04:35:11;;;;;;;5.07;2.40;;;18.10;59.80;;;;;;5033178;28;20056;-72
2022/08/09 04:37:38;;;;;;;7.03;2.70;;;18.10;60.00;;;;;;5032582;28;20041;-70
2022/08/09 04:40:05;;;;;;;7.38;3.15;;;18.20;60.30;;;;;;5033194;28;20029;-71
2022/08/09 04:42:31;;;;;;;4.15;2.85;;;18.20;60.70;;;;;;5038271;28;20029;-70
2022/08/09 04:44:59;;;;;;;9.23;2.63;;;18.20;60.60;;;;;;5036435;28;20024;-71
2022/08/09 04:47:26;;;;;;;5.07;2.25;;;18.20;60.50;;;;;;5032904;28;20108;-69
2022/08/09 04:49:53;;;;;;;3.88;2.90;;;18.30;60.40;;;;;;5032844;28;20052;-71
2022/08/09 04:52:23;;;;;;;5.88;2.30;;;18.30;60.10;;;;;;5032894;28;20060;-71
2022/08/09 04:54:52;;;;;;;5.35;2.80;;;18.30;60.00;;;;;;5032360;28;20488;-70
2022/08/09 04:57:19;;;;;;;8.95;2.60;;;18.40;60.00;;;;;;5015037;28;20462;-71
2022/08/09 04:59:45;;;;;;;4.32;2.53;;;18.40;60.00;;;;;;5032698;28;20025;-71
2022/08/09 05:02:11;;;;;;;5.30;2.75;;;18.50;60.00;;;;;;5032647;28;20104;-71
2022/08/09 05:04:37;;;;;;;4.22;2.58;;;18.50;60.00;;;;;;5032718;28;20026;-70
2022/08/09 05:07:02;;;;;;;10.70;2.60;;;18.50;59.80;;;;;;5032592;28;20021;-71
2022/08/09 05:09:29;;;;;;;6.68;2.20;;;18.60;59.80;;;;;;5032754;28;20022;-71
2022/08/09 05:11:56;;;;;;;5.93;2.75;;;18.60;59.60;;;;;;5044543;28;20368;-71
2022/08/09 05:14:22;;;;;;;4.32;2.65;;;18.70;59.50;;;;;;5052454;28;20090;-70
2022/08/09 05:16:48;;;;;;;6.30;2.47;;;18.80;59.70;;;;;;5052474;28;20470;-70
2022/08/09 05:19:14;;;;;;;7.22;3.00;;;18.80;59.60;;;;;;5052150;28;20028;-69
2022/08/09 05:21:40;;;;;;;6.47;2.80;;;18.80;59.40;;;;;;5052331;28;20028;-70
2022/08/09 05:24:06;;;;;;;7.57;2.95;;;18.90;59.30;;;;;;5052423;28;20018;-71
2022/08/09 05:26:32;;;;;;;4.30;2.85;;;19.00;59.20;;;;;;5051744;28;20381;-71
2022/08/09 05:28:58;;;;;;;4.07;2.60;;;19.00;59.10;;;;;;5032489;28;20030;-73
2022/08/09 05:31:24;;;;;;;4.15;2.20;;;19.10;59.10;;;;;;5032349;28;20021;-73
2022/08/09 05:33:49;;;;;;;5.30;2.95;;;19.10;59.00;;;;;;5032061;28;20026;-70
2022/08/09 05:36:15;;;;;;;8.73;3.00;;;19.20;58.90;;;;;;5014758;28;20418;-73
2022/08/09 05:38:41;;;;;;;4.35;2.88;;;19.30;58.90;;;;;;5014628;28;20021;-72
2022/08/09 05:41:07;;;;;;;6.60;2.40;;;19.30;58.70;;;;;;5034648;28;20027;-70
2022/08/09 05:43:35;;;;;;;8.20;3.10;;;19.40;58.70;;;;;;5032143;28;20418;-71
2022/08/09 05:46:02;;;;;;;4.65;3.03;;;19.40;58.60;;;;;;5031762;28;20374;-71
2022/08/09 05:48:28;;;;;;;7.90;2.97;;;19.50;58.50;;;;;;5032283;28;20099;-71
2022/08/09 05:50:54;;;;;;;6.75;2.53;;;19.60;58.20;;;;;;5014320;28;20025;-72
2022/08/09 05:53:20;;;;;;;5.05;2.50;;;19.60;57.80;;;;;;5032241;28;20100;-71
2022/08/09 05:55:46;;;;;;;3.03;2.38;;;19.70;57.60;;;;;;5032132;28;20145;-70
2022/08/09 05:58:12;;;;;;;3.95;2.80;;;19.70;57.60;;;;;;5032085;28;20021;-72
2022/08/09 06:00:37;;;;;;;17.30;2.90;;;19.80;57.60;;;;;;5032033;28;20035;-70
2022/08/09 06:03:03;;;;;;;8.13;2.88;;;19.90;57.70;;;;;;5031602;28;20027;-70
2022/08/09 06:05:31;;;;;;;7.75;2.80;;;19.90;57.60;;;;;;5014626;28;20112;-71
2022/08/09 06:07:57;;;;;;;5.28;3.00;;;20.00;57.50;;;;;;5032336;28;20022;-70
2022/08/09 06:10:36;;;;;;;10.95;3.78;;;20.10;57.40;;;;;;5032300;28;20113;-72
2022/08/09 06:13:10;;;;;;;11.68;3.85;;;20.10;57.20;;;;;;5012507;28;20037;-71
2022/08/09 06:15:36;;;;;;;4.40;2.97;;;20.20;57.10;;;;;;5012473;28;20030;-72
2022/08/09 06:18:02;;;;;;;10.07;3.55;;;20.20;56.90;;;;;;5013457;28;20037;-71
2022/08/09 06:20:28;;;;;;;13.23;3.58;;;20.30;57.00;;;;;;5031823;28;20517;-72
2022/08/09 06:22:54;;;;;;;13.07;3.53;;;20.40;56.90;;;;;;5032201;28;20025;-71
2022/08/09 06:25:20;;;;;;;11.88;3.53;;;20.40;56.80;;;;;;5032099;28;20096;-71
2022/08/09 06:27:46;;;;;;;7.82;2.97;;;20.50;56.90;;;;;;5032083;28;20025;-71
2022/08/09 06:30:12;;;;;;;8.45;3.55;;;20.50;56.90;;;;;;5032171;28;20025;-70
2022/08/09 06:32:38;;;;;;;7.45;3.17;;;20.60;56.80;;;;;;5032083;28;20025;-71
2022/08/09 06:35:04;;;;;;;5.95;3.45;;;20.70;56.80;;;;;;5032116;28;20021;-70
2022/08/09 06:37:30;;;;;;;7.07;4.00;;;20.70;56.60;;;;;;5031408;28;20030;-70
2022/08/09 06:39:55;;;;;;;6.43;3.95;;;20.80;56.60;;;;;;5031981;28;20029;-70
2022/08/09 06:42:21;;;;;;;8.27;3.30;;;20.80;56.20;;;;;;5049453;28;20033;-70
2022/08/09 06:44:48;;;;;;;3.92;2.45;;;20.90;55.70;;;;;;5053434;28;20370;-71
2022/08/09 06:47:14;;;;;;;5.88;3.47;;;21.00;55.10;;;;;;5055251;28;20480;-71
2022/08/09 06:49:40;;;;;;;9.73;4.10;;;21.00;55.20;;;;;;5055419;28;20410;-71
2022/08/09 06:52:06;;;;;;;11.73;4.13;;;21.10;55.40;;;;;;5029374;28;20087;-71
2022/08/09 06:54:32;;;;;;;14.82;4.10;;;21.20;55.50;;;;;;5035423;28;20033;-70
2022/08/09 06:56:58;;;;;;;9.02;5.20;;;21.20;55.50;;;;;;5035323;28;20091;-73
2022/08/09 06:59:23;;;;;;;13.45;4.70;;;21.30;55.30;;;;;;5035198;28;20032;-70
2022/08/09 07:01:49;;;;;;;13.55;4.97;;;21.40;55.20;;;;;;5035134;28;20029;-71
2022/08/09 07:04:15;;;;;;;11.50;5.03;;;21.50;55.30;;;;;;5035139;28;20530;-72
2022/08/09 07:06:41;;;;;;;9.05;5.07;;;21.60;55.30;;;;;;5035078;28;20030;-72
2022/08/09 07:09:07;;;;;;;8.52;5.50;;;21.60;55.20;;;;;;5016807;28;20022;-72
2022/08/09 07:11:33;;;;;;;15.00;6.05;;;21.70;55.10;;;;;;5045750;28;20065;-69
2022/08/09 07:13:59;;;;;;;16.40;6.95;;;21.80;54.70;;;;;;5054545;28;20024;-70
2022/08/09 07:16:25;;;;;;;11.55;6.60;;;21.80;54.40;;;;;;5054746;28;20533;-71
2022/08/09 07:18:50;;;;;;;12.30;6.75;;;21.90;54.70;;;;;;5054635;28;20029;-70
2022/08/09 07:21:17;;;;;;;18.63;9.02;;;22.00;54.70;;;;;;5054495;28;20072;-69
2022/08/09 07:23:42;;;;;;;19.85;8.27;;;22.10;54.10;;;;;;5054571;28;20017;-72
2022/08/09 07:26:09;;;;;;;20.77;9.18;;;22.10;53.80;;;;;;5040816;28;20067;-70
2022/08/09 07:28:34;;;;;;;18.65;9.65;;;22.20;53.50;;;;;;5034643;28;20029;-70
2022/08/09 07:31:00;;;;;;;30.13;10.02;;;22.30;53.30;;;;;;5034582;28;20022;-72
2022/08/09 07:33:26;;;;;;;24.23;10.68;;;22.40;53.30;;;;;;5034498;28;20075;-72
2022/08/09 07:35:52;;;;;;;20.77;8.95;;;22.40;53.20;;;;;;5034539;28;20022;-72
2022/08/09 07:38:18;;;;;;;20.27;9.23;;;22.50;52.90;;;;;;5034487;28;20100;-72
2022/08/09 07:40:44;;;;;;;17.02;8.73;;;22.60;52.20;;;;;;5038034;28;20029;-68
2022/08/09 07:43:09;;;;;;;17.40;8.13;;;22.70;52.30;;;;;;5012819;28;20360;-70
2022/08/09 07:45:35;;;;;;;20.85;8.50;;;22.80;52.20;;;;;;5014420;28;20049;-70
2022/08/09 07:48:01;;;;;;;14.27;6.70;;;22.90;52.10;;;;;;5014564;28;20068;-68
2022/08/09 07:50:28;;;;;;;19.00;8.40;;;23.00;52.20;;;;;;5013145;28;20026;-69
2022/08/09 07:52:54;;;;;;;11.68;6.53;;;23.00;51.90;;;;;;5014863;28;20022;-72
2022/08/09 07:55:20;;;;;;;17.20;6.10;;;23.10;51.10;;;;;;5014283;28;20022;-68
2022/08/09 07:57:47;;;;;;;21.05;6.95;;;23.20;51.00;;;;;;5013048;28;20391;-71
2022/08/09 08:00:18;;;;;;;12.98;6.20;;;23.30;50.40;;;;;;5024642;28;20044;-69
2022/08/09 08:02:44;;;;;;;12.07;6.53;;;23.30;50.20;;;;;;5034077;28;20542;-69
2022/08/09 08:05:10;;;;;;;18.40;6.88;;;23.40;50.50;;;;;;5034015;28;20097;-69
2022/08/09 08:07:36;;;;;;;12.90;6.88;;;23.50;49.90;;;;;;5034089;28;20430;-70
2022/08/09 08:10:03;;;;;;;18.02;6.88;;;23.60;50.00;;;;;;5032952;28;20026;-70
2022/08/09 08:12:28;;;;;;;12.70;5.20;;;23.60;49.70;;;;;;5034228;28;20371;-70
2022/08/09 08:14:54;;;;;;;9.68;4.65;;;23.70;49.10;;;;;;5033795;28;20021;-69
2022/08/09 08:17:20;;;;;;;15.98;5.80;;;23.70;48.70;;;;;;5033263;28;20030;-70
2022/08/09 08:19:45;;;;;;;11.80;4.85;;;23.80;47.90;;;;;;5033362;28;20045;-69
2022/08/09 08:22:11;;;;;;;11.27;4.22;;;23.80;46.80;;;;;;5033513;28;20082;-69
2022/08/09 08:24:37;;;;;;;9.75;4.82;;;23.90;47.10;;;;;;5033535;28;20108;-72
2022/08/09 08:27:03;;;;;;;12.90;4.50;;;23.90;46.20;;;;;;5015347;28;20037;-71
2022/08/09 08:29:29;;;;;;;14.05;4.20;;;24.00;45.80;;;;;;5015203;28;20029;-69
2022/08/09 08:31:55;;;;;;;15.80;4.15;;;24.00;45.80;;;;;;5033295;28;20120;-69
2022/08/09 08:34:21;;;;;;;13.63;4.25;;;24.10;45.50;;;;;;5015709;28;20029;-69
2022/08/09 08:36:47;;;;;;;7.70;3.58;;;24.20;45.60;;;;;;5032805;28;20104;-71
2022/08/09 08:39:13;;;;;;;14.35;4.57;;;24.30;45.70;;;;;;5033184;28;20026;-70
2022/08/09 08:41:40;;;;;;;10.48;5.10;;;24.30;45.40;;;;;;5042780;28;20075;-69
2022/08/09 08:44:08;;;;;;;14.55;4.68;;;24.40;45.40;;;;;;5053478;28;20023;-70
2022/08/09 08:46:39;;;;;;;6.85;3.17;;;24.50;45.60;;;;;;5053089;28;20016;-70
2022/08/09 08:49:06;;;;;;;7.20;2.95;;;24.60;44.10;;;;;;5053109;28;20021;-70
2022/08/09 08:51:32;;;;;;;7.97;2.33;;;24.70;44.60;;;;;;5052988;28;20055;-71
2022/08/09 08:54:05;;;;;;;6.18;2.05;;;24.70;43.70;;;;;;5039452;28;20025;-71
2022/08/09 08:56:38;;;;;;;5.10;2.10;;;24.80;42.90;;;;;;5033083;28;20060;-72
2022/08/09 08:59:06;;;;;;;5.72;1.92;;;24.90;42.00;;;;;;5033008;28;20509;-70
2022/08/09 09:01:35;;;;;;;5.05;1.80;;;24.90;41.70;;;;;;5032877;28;20025;-70
2022/08/09 09:04:08;;;;;;;5.10;1.95;;;25.00;41.40;;;;;;5032790;28;20013;-70
2022/08/09 09:06:41;;;;;;;7.23;2.33;;;25.10;40.90;;;;;;5032542;28;20025;-70
2022/08/09 09:09:08;;;;;;;4.75;2.38;;;25.20;40.30;;;;;;5032765;28;20097;-69
2022/08/09 09:11:35;;;;;;;6.93;2.25;;;25.20;39.50;;;;;;5022353;28;20040;-71
2022/08/09 09:14:20;;;;;;;5.97;2.65;;;25.30;40.00;;;;;;5032445;28;20364;-71
2022/08/09 09:16:47;;;;;;;6.97;1.92;;;25.30;39.80;;;;;;5032699;28;20022;-71
2022/08/09 09:19:13;;;;;;;5.20;2.10;;;25.40;39.60;;;;;;5032583;28;20363;-70
2022/08/09 09:22:05;;;;;;;7.45;2.20;;;25.40;40.40;;;;;;5032526;28;20029;-71
2022/08/09 09:24:33;;;;;;;4.68;2.30;;;25.50;40.30;;;;;;5014790;28;20024;-68
2022/08/09 09:27:01;;;;;;;4.25;2.03;;;25.60;39.70;;;;;;5032002;28;20048;-70
2022/08/09 09:29:33;;;;;;;4.47;2.38;;;25.60;39.70;;;;;;5014761;28;20433;-70
2022/08/09 09:32:00;;;;;;;5.78;2.25;;;25.80;39.40;;;;;;5032406;28;20123;-71
2022/08/09 09:34:26;;;;;;;5.22;1.85;;;25.90;39.70;;;;;;5032411;28;20550;-69
2022/08/09 09:36:52;;;;;;;3.85;2.10;;;26.00;39.80;;;;;;5032259;28;20017;-70
2022/08/09 09:39:18;;;;;;;7.70;2.33;;;26.10;39.00;;;;;;5032356;28;20033;-68
2022/08/09 09:41:45;;;;;;;8.73;2.35;;;26.20;37.70;;;;;;5035938;28;20025;-70
2022/08/09 09:44:13;;;;;;;5.88;1.85;;;26.40;38.40;;;;;;5032335;28;20025;-70
2022/08/09 09:46:41;;;;;;;2.60;1.77;;;26.50;38.70;;;;;;5032543;28;20017;-69
2022/08/09 09:49:10;;;;;;;4.90;1.83;;;26.60;38.30;;;;;;5032411;28;20490;-70
2022/08/09 09:51:38;;;;;;;7.63;1.85;;;26.70;38.00;;;;;;5014550;28;20489;-70
2022/08/09 09:54:09;;;;;;;11.02;2.13;;;26.80;38.20;;;;;;5032287;28;20049;-71
2022/08/09 09:56:40;;;;;;;5.53;2.40;;;26.90;37.10;;;;;;5032335;28;20063;-69
2022/08/09 09:59:10;;;;;;;5.40;2.05;;;27.00;37.10;;;;;;5031817;28;20017;-69
2022/08/09 10:01:36;;;;;;;5.50;2.47;;;27.20;37.30;;;;;;5014666;28;20041;-69
2022/08/09 10:04:04;;;;;;;4.63;2.20;;;27.30;36.20;;;;;;5014531;28;20079;-70
2022/08/09 10:06:39;;;;;;;3.22;1.98;;;27.50;37.00;;;;;;5014403;28;20494;-72
2022/08/09 10:09:07;;;;;;;3.08;1.85;;;27.60;37.00;;;;;;5014470;28;20555;-72
2022/08/09 10:11:34;;;;;;;2.13;1.40;;;27.80;36.20;;;;;;5040966;28;20025;-69
2022/08/09 10:14:00;;;;;;;3.03;1.80;;;28.10;36.90;;;;;;5051974;28;20114;-71
2022/08/09 10:16:30;;;;;;;2.25;1.75;;;28.30;35.90;;;;;;5033263;28;20064;-72
2022/08/09 10:18:58;;;;;;;3.88;1.45;;;28.40;35.50;;;;;;5032296;28;20052;-69
2022/08/09 10:21:24;;;;;;;1.92;1.20;;;28.60;34.60;;;;;;5036109;28;20060;-69
2022/08/09 10:23:51;;;;;;;2.95;1.48;;;28.80;35.30;;;;;;5035854;28;20025;-70
2022/08/09 10:26:18;;;;;;;2.53;1.45;;;28.90;34.80;;;;;;5035903;28;20391;-70
2022/08/09 10:28:44;;;;;;;3.28;2.13;;;28.90;33.80;;;;;;5017953;28;20021;-70
2022/08/09 10:31:12;;;;;;;4.53;1.50;;;28.90;32.90;;;;;;5035206;28;20039;-70
2022/08/09 10:33:38;;;;;;;3.72;1.45;;;28.80;32.80;;;;;;5035529;28;20032;-70
2022/08/09 10:36:06;;;;;;;5.97;1.63;;;28.70;32.20;;;;;;5035437;28;20483;-70
2022/08/09 10:38:33;;;;;;;3.80;1.98;;;28.60;33.00;;;;;;5035549;28;20490;-69
2022/08/09 10:40:59;;;;;;;3.58;2.58;;;28.50;33.30;;;;;;5042102;28;20383;-71
2022/08/09 10:43:26;;;;;;;3.03;2.00;;;28.40;33.00;;;;;;5055477;28;20035;-70
2022/08/09 10:45:53;;;;;;;3.08;1.90;;;28.30;32.70;;;;;;5055279;28;20035;-71
2022/08/09 10:48:18;;;;;;;4.50;2.33;;;28.30;33.20;;;;;;5050044;28;20498;-69
2022/08/09 10:53:54;;;;;;;2.38;1.70;;;28.10;33.30;;;;;;5015615;28;20432;-70
2022/08/09 10:56:26;;;;;;;6.53;1.95;;;28.10;33.40;;;;;;5015601;28;20029;-70
2022/08/09 10:58:55;;;;;;;5.40;2.00;;;28.10;33.90;;;;;;5033117;28;20021;-71
2022/08/09 11:01:34;;;;;;;4.97;1.88;;;28.10;33.70;;;;;;5034975;28;20029;-71
2022/08/09 11:04:08;;;;;;;4.35;1.77;;;28.10;33.60;;;;;;5034969;28;20013;-71
2022/08/09 11:06:41;;;;;;;3.05;1.52;;;28.10;33.30;;;;;;5034451;28;20029;-69
2022/08/09 11:09:09;;;;;;;9.45;2.00;;;28.20;34.10;;;;;;5034975;28;20045;-71
2022/08/09 11:11:53;;;;;;;3.15;1.48;;;28.20;33.10;;;;;;5028224;28;20029;-70
2022/08/09 11:14:34;;;;;;;4.95;1.80;;;28.30;34.40;;;;;;5054733;28;20032;-71
2022/08/09 11:17:25;;;;;;;2.20;1.50;;;28.40;33.30;;;;;;5054755;28;20024;-70
2022/08/09 11:20:00;;;;;;;2.03;1.50;;;28.40;33.10;;;;;;5047468;28;20045;-70
2022/08/09 11:22:50;;;;;;;5.00;1.70;;;28.50;32.90;;;;;;5038491;28;20060;-71
2022/08/09 11:25:37;;;;;;;2.83;1.75;;;28.60;33.30;;;;;;5029632;28;20112;-71
2022/08/09 11:28:32;;;;;;;3.38;1.60;;;28.80;33.50;;;;;;5034678;28;20505;-71
2022/08/09 11:30:58;;;;;;;1.88;1.40;;;28.90;32.00;;;;;;5034082;28;20033;-70
2022/08/09 11:33:47;;;;;;;3.00;1.42;;;29.00;32.20;;;;;;5034379;28;20028;-70
2022/08/09 11:36:16;;;;;;;2.83;1.52;;;29.00;32.20;;;;;;5034469;28;20049;-72
2022/08/09 11:38:42;;;;;;;4.85;1.55;;;29.10;31.20;;;;;;5033884;28;20120;-71
2022/08/09 11:41:10;;;;;;;4.03;1.27;;;29.20;30.60;;;;;;5041524;28;20158;-71
2022/08/09 11:43:45;;;;;;;1.98;1.40;;;29.20;30.50;;;;;;5042038;28;20541;-70
2022/08/09 11:46:11;;;;;;;6.25;1.50;;;29.30;29.70;;;;;;5034368;28;20022;-70
2022/08/09 11:48:54;;;;;;;3.67;1.88;;;29.30;29.90;;;;;;5034184;28;20052;-71
2022/08/09 11:51:24;;;;;;;3.13;1.42;;;29.50;30.00;;;;;;5034217;28;20021;-70
2022/08/09 11:54:11;;;;;;;4.82;1.27;;;29.50;30.50;;;;;;5032822;28;20022;-70
2022/08/09 11:56:37;;;;;;;2.42;1.35;;;29.70;30.50;;;;;;5033735;28;20061;-69
2022/08/09 11:59:04;;;;;;;2.28;1.50;;;29.90;30.10;;;;;;5034077;28;20049;-70
2022/08/09 12:01:39;;;;;;;2.33;1.40;;;30.00;30.20;;;;;;5033987;28;20029;-71
2022/08/09 12:04:12;;;;;;;2.03;1.60;;;30.20;29.30;;;;;;5033929;28;20522;-69
2022/08/09 12:06:39;;;;;;;7.22;1.98;;;30.40;28.80;;;;;;5033920;28;20383;-71
2022/08/09 12:09:08;;;;;;;3.25;1.20;;;30.50;29.40;;;;;;5033759;28;20025;-70
2022/08/09 12:11:34;;;;;;;1.60;1.35;;;30.60;28.70;;;;;;5044316;28;20631;-72
2022/08/09 12:14:05;;;;;;;3.97;1.30;;;30.70;28.70;;;;;;5047527;28;20029;-70
2022/08/09 12:16:41;;;;;;;2.10;1.27;;;30.80;28.20;;;;;;5033821;28;20527;-70
2022/08/09 12:19:08;;;;;;;4.32;1.63;;;30.90;28.60;;;;;;5033528;28;20108;-69
2022/08/09 12:21:50;;;;;;;3.15;1.65;;;31.00;28.70;;;;;;5033599;28;20079;-71
2022/08/09 12:24:22;;;;;;;2.83;1.67;;;31.00;29.00;;;;;;5033615;28;20014;-70
2022/08/09 12:26:49;;;;;;;3.35;2.10;;;31.00;28.30;;;;;;5033519;28;20045;-72
2022/08/09 12:29:21;;;;;;;2.85;1.88;;;31.00;28.60;;;;;;5033491;28;20026;-69
2022/08/09 12:31:48;;;;;;;2.47;1.55;;;31.00;29.00;;;;;;5032705;28;20028;-71
2022/08/09 12:34:35;;;;;;;4.53;1.25;;;31.10;28.90;;;;;;5033228;28;20029;-70
2022/08/09 12:37:02;;;;;;;3.28;1.30;;;31.20;27.80;;;;;;5033298;28;20017;-70
2022/08/09 12:39:28;;;;;;;1.85;1.20;;;31.30;27.10;;;;;;5033327;28;20047;-71
2022/08/09 12:41:54;;;;;;;1.85;1.15;;;31.40;27.30;;;;;;5045542;28;20530;-72
2022/08/09 12:44:20;;;;;;;11.63;1.75;;;31.60;26.80;;;;;;5035303;28;20017;-72
2022/08/09 12:46:48;;;;;;;2.85;1.92;;;31.80;27.30;;;;;;5035225;28;20109;-69
2022/08/09 12:49:14;;;;;;;3.50;1.73;;;31.90;27.40;;;;;;5036961;28;20021;-72
2022/08/09 12:51:51;;;;;;;2.33;1.50;;;32.10;27.60;;;;;;5031897;28;20441;-70
2022/08/09 12:54:17;;;;;;;5.03;1.30;;;32.30;27.40;;;;;;5031798;28;20029;-71
2022/08/09 12:56:47;;;;;;;2.22;1.20;;;32.40;27.10;;;;;;5032995;28;20036;-70
2022/08/09 12:59:14;;;;;;;2.10;1.27;;;32.60;26.80;;;;;;5032997;28;20060;-70